createdAt,value
2023-03-26T00:01:46.601Z,99461.31
2023-03-26T00:04:14.344Z,99462.22
2023-03-26T00:06:42.093Z,99468.31
2023-03-26T00:09:12.983Z,99466.81
2023-03-26T00:11:40.611Z,99467.78
2023-03-26T00:14:09.398Z,99471.25
2023-03-26T00:16:37.071Z,99459.47
2023-03-26T00:19:06.189Z,99463.63
2023-03-26T00:21:33.813Z,99459.53
2023-03-26T00:24:04.386Z,99469.81
2023-03-26T00:26:33.494Z,99463.78
2023-03-26T00:29:03.287Z,99467.03
2023-03-26T00:31:31.236Z,99455.72
2023-03-26T00:33:59.409Z,99452.88
2023-03-26T00:36:28.355Z,99454.44
2023-03-26T00:38:56.309Z,99447.41
2023-03-26T00:41:26.678Z,99443.06
2023-03-26T00:43:56.643Z,99442.84
2023-03-26T00:46:24.981Z,99443.53
2023-03-26T00:48:52.854Z,99438.25
2023-03-26T00:51:21.791Z,99428.69
2023-03-26T00:53:51.128Z,99422.63
2023-03-26T00:56:20.034Z,99419.91
2023-03-26T00:58:49.824Z,99419.75
2023-03-26T01:01:20.630Z,99424.06
2023-03-26T01:04:04.837Z,99422.34
2023-03-26T01:06:36.153Z,99421.38
2023-03-26T01:09:13.499Z,99409.38
2023-03-26T01:11:41.384Z,99405.13
2023-03-26T01:14:12.243Z,99397.19
2023-03-26T01:16:42.485Z,99398.91
2023-03-26T01:19:16.426Z,99398.88
2023-03-26T01:21:43.992Z,99384.31
2023-03-26T01:24:13.660Z,99375.66
2023-03-26T01:26:55.565Z,99383.28
2023-03-26T01:29:33.638Z,99384.06
2023-03-26T01:32:10.510Z,99375.50
2023-03-26T01:34:52.211Z,99376.22
2023-03-26T01:37:27.169Z,99368.44
2023-03-26T01:39:58.187Z,99363.34
2023-03-26T01:42:34.750Z,99345.38
2023-03-26T01:45:09.099Z,99338.41
2023-03-26T01:47:38.974Z,99336.59
2023-03-26T01:50:07.960Z,99336.53
2023-03-26T01:52:35.637Z,99333.91
2023-03-26T01:55:05.343Z,99328.03
2023-03-26T01:57:42.840Z,99320.38
2023-03-26T02:00:22.068Z,99306.56
2023-03-26T02:03:03.437Z,99305.75
2023-03-26T02:05:35.072Z,99305.75
2023-03-26T02:08:11.877Z,99298.81
2023-03-26T02:10:44.100Z,99297.91
2023-03-26T02:13:12.390Z,99291.06
2023-03-26T02:15:41.321Z,99286.75
2023-03-26T02:18:10.774Z,99281.66
2023-03-26T02:20:38.733Z,99284.09
2023-03-26T02:23:06.769Z,99284.09
2023-03-26T02:25:36.629Z,99276.41
2023-03-26T02:28:06.344Z,99278.00
2023-03-26T02:30:34.572Z,99278.00
2023-03-26T02:33:02.397Z,99265.91
2023-03-26T02:35:45.656Z,99261.59
2023-03-26T02:38:14.412Z,99259.88
2023-03-26T02:40:42.413Z,99267.59
2023-03-26T02:43:11.362Z,99258.97
2023-03-26T02:45:39.978Z,99259.88
2023-03-26T02:48:07.855Z,99245.31
2023-03-26T02:50:50.065Z,99247.81
2023-03-26T02:53:41.166Z,99238.34
2023-03-26T02:56:31.375Z,99236.69
2023-03-26T02:59:27.001Z,99234.91
2023-03-26T03:02:18.314Z,99234.88
2023-03-26T03:04:46.574Z,99232.28
2023-03-26T03:07:15.861Z,99230.47
2023-03-26T03:09:43.629Z,99219.31
2023-03-26T03:12:46.253Z,99209.06
2023-03-26T03:15:15.218Z,99210.75
2023-03-26T03:17:42.867Z,99198.75
2023-03-26T03:20:12.182Z,99193.69
2023-03-26T03:22:41.140Z,99187.78
2023-03-26T03:25:14.204Z,99187.78
2023-03-26T03:27:42.812Z,99186.97
2023-03-26T03:30:15.466Z,99178.53
2023-03-26T03:32:45.816Z,99184.44
2023-03-26T03:35:15.775Z,99184.44
2023-03-26T03:37:48.052Z,99182.72
2023-03-26T03:40:15.803Z,99186.16
2023-03-26T03:42:44.288Z,99181.09
2023-03-26T03:45:15.566Z,99172.50
2023-03-26T03:47:53.067Z,99170.84
2023-03-26T03:50:28.122Z,99164.06
2023-03-26T03:53:10.404Z,99162.41
2023-03-26T03:55:38.155Z,99153.09
2023-03-26T03:58:06.029Z,99146.19
2023-03-26T04:00:34.977Z,99147.91
2023-03-26T04:03:32.995Z,99140.28
2023-03-26T04:06:02.708Z,99123.25
2023-03-26T04:08:30.328Z,99123.25
2023-03-26T04:10:58.114Z,99120.81
2023-03-26T04:13:44.611Z,99119.09
2023-03-26T04:16:36.150Z,99111.47
2023-03-26T04:19:04.683Z,99103.75
2023-03-26T04:21:32.371Z,99096.94
2023-03-26T04:24:01.600Z,99090.94
2023-03-26T04:26:52.133Z,99085.84
2023-03-26T04:29:27.637Z,99079.88
2023-03-26T04:31:59.144Z,99078.25
2023-03-26T04:34:30.963Z,99068.00
2023-03-26T04:37:26.497Z,99061.19
2023-03-26T04:40:10.380Z,99064.56
2023-03-26T04:43:04.585Z,99060.31
2023-03-26T04:45:53.943Z,99065.34
2023-03-26T04:48:25.857Z,99066.19
2023-03-26T04:50:53.551Z,99065.34
2023-03-26T04:53:24.090Z,99073.88
2023-03-26T04:56:24.542Z,99065.31
2023-03-26T04:59:26.422Z,99060.22
2023-03-26T05:01:56.812Z,99048.34
2023-03-26T05:04:29.408Z,99050.84
2023-03-26T05:06:59.239Z,99041.22
2023-03-26T05:09:35.066Z,99041.97
2023-03-26T05:12:11.704Z,99017.34
2023-03-26T05:15:03.192Z,99019.13
2023-03-26T05:17:55.467Z,99002.09
2023-03-26T05:20:31.172Z,98988.56
2023-03-26T05:22:58.813Z,98982.59
2023-03-26T05:25:31.745Z,98987.53
2023-03-26T05:28:01.284Z,98986.81
2023-03-26T05:30:36.982Z,98979.22
2023-03-26T05:33:05.360Z,98987.03
2023-03-26T05:35:43.942Z,98992.06
2023-03-26T05:38:11.706Z,98971.69
2023-03-26T05:40:39.284Z,98951.31
2023-03-26T05:43:08.271Z,98939.47
2023-03-26T05:45:42.502Z,98932.75
2023-03-26T05:48:20.750Z,98927.75
2023-03-26T05:50:50.455Z,98924.44
2023-03-26T05:53:19.560Z,98922.81
2023-03-26T05:56:06.408Z,98917.88
2023-03-26T05:58:52.592Z,98911.09
2023-03-26T06:01:44.708Z,98894.94
2023-03-26T06:04:13.574Z,98897.59
2023-03-26T06:06:48.588Z,98896.81
2023-03-26T06:09:16.985Z,98899.47
2023-03-26T06:11:44.683Z,98896.06
2023-03-26T06:14:12.453Z,98887.53
2023-03-26T06:16:51.783Z,98884.19
2023-03-26T06:19:21.409Z,98885.91
2023-03-26T06:22:19.685Z,98888.47
2023-03-26T06:25:09.750Z,98887.63
2023-03-26T06:27:57.592Z,98872.31
2023-03-26T06:30:51.471Z,98876.63
2023-03-26T06:33:51.974Z,98872.13
2023-03-26T06:36:19.717Z,98859.25
2023-03-26T06:38:51.448Z,98857.63
2023-03-26T06:41:19.053Z,98858.50
2023-03-26T06:44:02.230Z,98853.38
2023-03-26T06:47:04.862Z,98863.53
2023-03-26T06:49:55.345Z,98866.09
2023-03-26T06:52:46.643Z,98867.97
2023-03-26T06:55:37.795Z,98865.72
2023-03-26T06:58:24.238Z,98856.47
2023-03-26T07:01:10.797Z,98850.63
2023-03-26T07:04:00.107Z,98851.56
2023-03-26T07:06:50.858Z,98843.97
2023-03-26T07:09:37.128Z,98832.06
2023-03-26T07:12:24.615Z,98828.72
2023-03-26T07:15:11.863Z,98838.97
2023-03-26T07:17:58.143Z,98839.09
2023-03-26T07:20:30.711Z,98837.41
2023-03-26T07:22:58.769Z,98840.03
2023-03-26T07:25:52.958Z,98837.53
2023-03-26T07:28:40.015Z,98828.13
2023-03-26T07:31:27.127Z,98827.22
2023-03-26T07:34:30.562Z,98801.56
2023-03-26T07:37:24.591Z,98794.63
2023-03-26T07:40:25.480Z,98791.22
2023-03-26T07:43:20.929Z,98789.44
2023-03-26T07:46:14.151Z,98782.50
2023-03-26T07:49:01.769Z,98779.19
2023-03-26T07:51:37.947Z,98749.38
2023-03-26T07:54:32.274Z,98748.78
2023-03-26T07:57:29.698Z,98741.16
2023-03-26T08:00:20.026Z,98746.38
2023-03-26T08:03:22.158Z,98747.28
2023-03-26T08:06:06.351Z,98752.41
2023-03-26T08:08:57.658Z,98760.00
2023-03-26T08:11:48.949Z,98753.91
2023-03-26T08:14:38.593Z,98741.22
2023-03-26T08:17:10.747Z,98744.59
2023-03-26T08:19:50.679Z,98776.28
2023-03-26T08:22:27.269Z,98773.56
2023-03-26T08:25:05.197Z,98752.94
2023-03-26T08:27:40.032Z,98752.97
2023-03-26T08:30:14.562Z,98759.03
2023-03-26T08:32:42.658Z,98757.38
2023-03-26T08:35:14.346Z,98761.81
2023-03-26T08:37:45.217Z,98767.63
2023-03-26T08:40:14.700Z,98766.97
2023-03-26T08:43:09.233Z,98747.34
2023-03-26T08:45:57.919Z,98736.50
2023-03-26T08:49:10.816Z,98740.91
2023-03-26T08:52:22.887Z,98732.38
2023-03-26T08:55:10.139Z,98727.41
2023-03-26T08:58:15.146Z,98729.28
2023-03-26T09:01:22.918Z,98728.63
2023-03-26T09:04:08.144Z,98724.41
2023-03-26T09:07:06.727Z,98727.78
2023-03-26T09:10:09.040Z,98716.72
2023-03-26T09:13:05.821Z,98722.81
2023-03-26T09:16:20.981Z,98721.13
2023-03-26T09:19:20.488Z,98723.72
2023-03-26T09:22:23.490Z,98721.13
2023-03-26T09:25:16.325Z,98711.69
2023-03-26T09:28:07.800Z,98719.38
2023-03-26T09:31:04.449Z,98723.72
2023-03-26T09:33:57.045Z,98746.88
2023-03-26T09:36:52.059Z,98710.72
2023-03-26T09:39:36.485Z,98712.53
2023-03-26T09:42:11.735Z,98697.91
2023-03-26T09:45:10.492Z,98709.13
2023-03-26T09:48:18.795Z,98694.53
2023-03-26T09:50:57.746Z,98692.00
2023-03-26T09:53:41.686Z,98693.66
2023-03-26T09:56:14.861Z,98685.03
2023-03-26T09:59:17.268Z,98696.16
2023-03-26T10:01:51.411Z,98694.44
2023-03-26T10:04:59.391Z,98727.13
2023-03-26T10:07:47.766Z,98696.16
2023-03-26T10:10:26.296Z,98684.91
2023-03-26T10:13:11.659Z,98695.19
2023-03-26T10:16:04.365Z,98696.06
2023-03-26T10:18:43.836Z,98680.44
2023-03-26T10:21:24.344Z,98679.41
2023-03-26T10:24:07.856Z,98722.34
2023-03-26T10:27:09.032Z,98697.53
2023-03-26T10:30:14.293Z,98693.28
2023-03-26T10:32:53.033Z,98683.63
2023-03-26T10:35:31.610Z,98695.72
2023-03-26T10:38:14.695Z,98680.06
2023-03-26T10:40:48.941Z,98686.88
2023-03-26T10:43:37.713Z,98691.94
2023-03-26T10:46:30.916Z,98691.22
2023-03-26T10:49:32.490Z,98683.16
2023-03-26T10:52:03.550Z,98699.31
2023-03-26T10:54:42.009Z,98683.34
2023-03-26T10:57:20.816Z,98698.69
2023-03-26T10:59:48.358Z,98712.91
2023-03-26T11:02:29.251Z,98693.78
2023-03-26T11:05:19.212Z,98686.66
2023-03-26T11:07:53.771Z,98721.25
2023-03-26T11:10:41.725Z,98696.28
2023-03-26T11:13:19.082Z,98693.31
2023-03-26T11:15:52.970Z,98702.28
2023-03-26T11:18:25.548Z,98701.22
2023-03-26T11:21:19.452Z,98695.28
2023-03-26T11:24:05.609Z,98710.19
2023-03-26T11:26:42.142Z,98693.09
2023-03-26T11:29:32.803Z,98738.69
2023-03-26T11:32:06.963Z,98720.69
2023-03-26T11:34:38.251Z,98694.00
2023-03-26T11:37:14.999Z,98714.41
2023-03-26T11:39:48.738Z,98709.22
2023-03-26T11:42:18.606Z,98722.13
2023-03-26T11:44:52.124Z,98719.78
2023-03-26T11:47:24.709Z,98715.28
2023-03-26T11:49:54.372Z,98722.97
2023-03-26T11:52:23.403Z,98701.25
2023-03-26T11:54:51.007Z,98703.66
2023-03-26T11:57:23.188Z,98692.63
2023-03-26T11:59:57.925Z,98700.59
2023-03-26T12:02:32.281Z,98679.81
2023-03-26T12:05:15.912Z,98692.75
2023-03-26T12:07:51.069Z,98683.66
2023-03-26T12:10:24.635Z,98710.31
2023-03-26T12:12:56.997Z,98684.81
2023-03-26T12:15:26.202Z,98737.03
2023-03-26T12:17:56.408Z,98678.69
2023-03-26T12:20:35.880Z,98652.63
2023-03-26T12:23:08.104Z,98665.66
2023-03-26T12:25:38.495Z,98662.28
2023-03-26T12:28:18.865Z,98642.53
2023-03-26T12:30:54.777Z,98642.56
2023-03-26T12:33:27.740Z,98644.09
2023-03-26T12:35:58.312Z,98627.66
2023-03-26T12:38:33.068Z,98645.41
2023-03-26T12:41:06.642Z,98630.94
2023-03-26T12:44:50.229Z,98658.78
2023-03-26T12:47:58.751Z,98645.50
2023-03-26T12:49:18.939Z,98625.38
2023-03-26T12:51:51.728Z,98638.38
2023-03-26T12:54:45.532Z,98625.09
2023-03-26T12:57:22.216Z,98642.16
2023-03-26T13:00:10.649Z,98621.22
2023-03-26T13:03:00.927Z,98622.34
2023-03-26T13:05:41.883Z,98616.66
2023-03-26T13:08:24.957Z,98623.22
2023-03-26T13:11:01.130Z,98620.00
2023-03-26T13:14:04.354Z,98627.84
2023-03-26T13:16:41.874Z,98607.75
2023-03-26T13:19:14.040Z,98630.22
2023-03-26T13:21:57.235Z,98611.19
2023-03-26T13:24:35.624Z,98624.22
2023-03-26T13:27:17.842Z,98595.16
2023-03-26T13:29:56.982Z,98614.94
2023-03-26T13:32:34.185Z,98600.06
2023-03-26T13:35:14.397Z,98599.38
2023-03-26T13:37:50.440Z,98601.97
2023-03-26T13:40:31.992Z,98617.13
2023-03-26T13:43:28.010Z,98593.69
2023-03-26T13:46:02.596Z,98607.19
2023-03-26T13:48:34.364Z,98605.84
2023-03-26T13:51:09.621Z,98616.97
2023-03-26T13:53:44.389Z,98622.44
2023-03-26T13:56:15.585Z,98631.41
2023-03-26T13:58:51.158Z,98628.50
2023-03-26T14:01:21.653Z,98633.16
2023-03-26T14:03:56.968Z,98662.84
2023-03-26T14:06:36.445Z,98663.94
2023-03-26T14:09:08.375Z,98659.00
2023-03-26T14:11:47.633Z,98665.00
2023-03-26T14:14:20.341Z,98700.38
2023-03-26T14:16:51.681Z,98700.53
2023-03-26T14:19:42.865Z,98732.34
2023-03-26T14:22:20.209Z,98740.03
2023-03-26T14:25:00.961Z,98736.38
2023-03-26T14:27:44.062Z,98739.47
2023-03-26T14:30:37.149Z,98746.94
2023-03-26T14:33:27.314Z,98761.25
2023-03-26T14:36:02.489Z,98759.63
2023-03-26T14:38:57.517Z,98758.94
2023-03-26T14:41:26.188Z,98761.34
2023-03-26T14:44:18.112Z,98754.13
2023-03-26T14:46:59.727Z,98746.19
2023-03-26T14:49:46.064Z,98755.47
2023-03-26T14:52:22.222Z,98752.00
2023-03-26T14:54:54.830Z,98738.59
2023-03-26T14:58:02.161Z,98723.47
2023-03-26T15:00:55.125Z,98723.47
2023-03-26T15:04:21.935Z,98732.03
2023-03-26T15:07:41.186Z,98730.50
2023-03-26T15:10:16.724Z,98721.97
2023-03-26T15:12:59.319Z,98721.13
2023-03-26T15:16:28.118Z,98715.03
2023-03-26T15:19:34.356Z,98711.66
2023-03-26T15:22:23.446Z,98707.47
2023-03-26T15:25:15.182Z,98705.72
2023-03-26T15:28:31.725Z,98703.09
2023-03-26T15:31:13.840Z,98710.00
2023-03-26T15:33:59.785Z,98705.59
2023-03-26T15:36:56.429Z,98700.56
2023-03-26T15:39:59.670Z,98711.59
2023-03-26T15:42:38.295Z,98699.44
2023-03-26T15:45:32.651Z,98691.75
2023-03-26T15:48:13.290Z,98690.94
2023-03-26T15:50:52.200Z,98690.91
2023-03-26T15:53:30.856Z,98693.44
2023-03-26T15:56:14.864Z,98699.53
2023-03-26T15:58:51.258Z,98693.31
2023-03-26T16:01:31.529Z,98695.22
2023-03-26T16:04:14.687Z,98698.63
2023-03-26T16:06:52.079Z,98702.91
2023-03-26T16:09:38.877Z,98708.00
2023-03-26T16:12:29.867Z,98720.00
2023-03-26T16:15:26.030Z,98727.13
2023-03-26T16:18:29.726Z,98729.66
2023-03-26T16:21:05.994Z,98733.88
2023-03-26T16:23:53.650Z,98735.59
2023-03-26T16:26:26.519Z,98752.53
2023-03-26T16:29:16.306Z,98752.63
2023-03-26T16:32:04.923Z,98752.56
2023-03-26T16:34:41.950Z,98751.72
2023-03-26T16:37:36.107Z,98761.06
2023-03-26T16:40:33.073Z,98758.44
2023-03-26T16:43:31.554Z,98767.91
2023-03-26T16:46:07.498Z,98761.03
2023-03-26T16:48:41.479Z,98754.13
2023-03-26T16:51:18.544Z,98760.09
2023-03-26T16:53:54.526Z,98757.50
2023-03-26T16:56:34.422Z,98752.41
2023-03-26T16:59:09.351Z,98756.75
2023-03-26T17:01:43.018Z,98765.25
2023-03-26T17:04:17.310Z,98762.72
2023-03-26T17:07:03.268Z,98764.28
2023-03-26T17:09:42.691Z,98765.13
2023-03-26T17:12:19.565Z,98769.53
2023-03-26T17:15:01.250Z,98754.94
2023-03-26T17:17:45.019Z,98759.94
2023-03-26T17:20:25.278Z,98759.19
2023-03-26T17:23:03.094Z,98774.59
2023-03-26T17:25:37.045Z,98766.00
2023-03-26T17:28:32.600Z,98766.00
2023-03-26T17:31:07.621Z,98752.28
2023-03-26T17:33:38.491Z,98758.31
2023-03-26T17:36:32.261Z,98758.97
2023-03-26T17:39:21.205Z,98752.06
2023-03-26T17:41:55.587Z,98752.00
2023-03-26T17:44:38.087Z,98750.34
2023-03-26T17:47:18.549Z,98752.94
2023-03-26T17:49:48.408Z,98747.00
2023-03-26T17:52:21.739Z,98762.47
2023-03-26T17:54:51.237Z,98757.13
2023-03-26T17:57:24.336Z,98765.75
2023-03-26T17:59:57.197Z,98772.53
2023-03-26T18:02:41.353Z,98774.97
2023-03-26T18:05:12.239Z,98763.91
2023-03-26T18:08:14.067Z,98766.34
2023-03-26T18:10:58.989Z,98770.44
2023-03-26T18:13:50.290Z,98768.78
2023-03-26T18:16:20.791Z,98768.56
2023-03-26T18:18:53.305Z,98768.56
2023-03-26T18:21:25.013Z,98783.16
2023-03-26T18:23:53.345Z,98786.47
2023-03-26T18:26:34.038Z,98765.94
2023-03-26T18:29:13.682Z,98783.94
2023-03-26T18:31:42.894Z,98773.44
2023-03-26T18:34:18.643Z,98770.03
2023-03-26T18:36:46.581Z,98781.31
2023-03-26T18:39:14.397Z,98777.81
2023-03-26T18:41:43.461Z,98780.44
2023-03-26T18:44:16.662Z,98773.56
2023-03-26T18:46:44.851Z,98765.00
2023-03-26T18:49:16.630Z,98766.78
2023-03-26T18:51:56.249Z,98767.56
2023-03-26T18:54:25.912Z,98765.81
2023-03-26T18:56:53.498Z,98759.78
2023-03-26T18:59:28.014Z,98774.28
2023-03-26T19:01:58.276Z,98775.94
2023-03-26T19:04:30.892Z,98780.91
2023-03-26T19:06:59.007Z,98774.13
2023-03-26T19:09:32.238Z,98766.38
2023-03-26T19:12:06.997Z,98766.38
2023-03-26T19:14:36.957Z,98773.09
2023-03-26T19:17:07.734Z,98762.84
2023-03-26T19:19:38.537Z,98749.97
2023-03-26T19:22:07.175Z,98754.25
2023-03-26T19:24:35.330Z,98746.50
2023-03-26T19:27:03.806Z,98743.13
2023-03-26T19:29:35.564Z,98740.59
2023-03-26T19:32:04.974Z,98741.44
2023-03-26T19:34:34.723Z,98744.09
2023-03-26T19:37:16.842Z,98743.28
2023-03-26T19:39:47.138Z,98735.59
2023-03-26T19:42:16.950Z,98723.56
2023-03-26T19:44:45.573Z,98721.00
2023-03-26T19:47:18.593Z,98716.75
2023-03-26T19:49:53.830Z,98716.72
2023-03-26T19:52:25.802Z,98713.22
2023-03-26T19:54:59.321Z,98705.56
2023-03-26T19:57:29.266Z,98714.97
2023-03-26T19:59:57.321Z,98708.22
2023-03-26T20:02:25.196Z,98707.34
2023-03-26T20:04:53.154Z,98701.50
2023-03-26T20:07:35.306Z,98707.47
2023-03-26T20:10:05.231Z,98708.34
2023-03-26T20:12:32.746Z,98705.84
2023-03-26T20:15:01.530Z,98708.50
2023-03-26T20:17:31.522Z,98694.97
2023-03-26T20:20:02.393Z,98707.88
2023-03-26T20:22:31.439Z,98715.63
2023-03-26T20:24:59.127Z,98716.63
2023-03-26T20:27:27.151Z,98710.69
2023-03-26T20:29:55.818Z,98719.31
2023-03-26T20:32:27.036Z,98712.47
2023-03-26T20:34:54.958Z,98720.22
2023-03-26T20:37:23.156Z,98724.50
2023-03-26T20:39:52.073Z,98720.16
2023-03-26T20:42:19.580Z,98721.03
2023-03-26T20:44:47.337Z,98714.22
2023-03-26T20:47:14.976Z,98723.53
2023-03-26T20:49:43.074Z,98731.16
2023-03-26T20:52:14.033Z,98734.50
2023-03-26T20:54:41.758Z,98719.00
2023-03-26T20:57:13.308Z,98727.53
2023-03-26T20:59:41.886Z,98723.28
2023-03-26T21:02:11.575Z,98736.16
2023-03-26T21:04:39.707Z,98726.72
2023-03-26T21:07:17.844Z,98721.53
2023-03-26T21:09:47.472Z,98743.69
2023-03-26T21:12:26.076Z,98748.66
2023-03-26T21:14:55.934Z,98751.22
2023-03-26T21:17:24.629Z,98766.44
2023-03-26T21:19:52.366Z,98763.03
2023-03-26T21:22:33.763Z,98759.59
2023-03-26T21:25:17.010Z,98757.84
2023-03-26T21:27:56.083Z,98759.47
2023-03-26T21:30:24.073Z,98762.84
2023-03-26T21:32:52.219Z,98771.41
2023-03-26T21:35:20.934Z,98765.34
2023-03-26T21:37:49.099Z,98776.38
2023-03-26T21:40:18.660Z,98776.34
2023-03-26T21:42:50.053Z,98778.09
2023-03-26T21:45:19.320Z,98785.59
2023-03-26T21:47:47.395Z,98776.03
2023-03-26T21:50:18.057Z,98797.31
2023-03-26T21:52:49.095Z,98786.13
2023-03-26T21:55:20.069Z,98793.78
2023-03-26T21:58:16.224Z,98796.38
2023-03-26T22:00:57.999Z,98799.78
2023-03-26T22:03:30.827Z,98802.34
2023-03-26T22:06:04.204Z,98815.16
2023-03-26T22:08:33.036Z,98824.34
2023-03-26T22:11:00.621Z,98813.25
2023-03-26T22:13:30.941Z,98815.72
2023-03-26T22:15:58.738Z,98814.13
2023-03-26T22:18:30.064Z,98802.91
2023-03-26T22:20:59.029Z,98821.84
2023-03-26T22:23:26.827Z,98819.16
2023-03-26T22:25:54.587Z,98822.66
2023-03-26T22:28:22.456Z,98830.31
2023-03-26T22:30:52.093Z,98834.28
2023-03-26T22:33:20.056Z,98838.66
2023-03-26T22:35:47.728Z,98855.81
2023-03-26T22:38:16.998Z,98853.09
2023-03-26T22:40:44.652Z,98854.06
2023-03-26T22:43:12.324Z,98858.28
2023-03-26T22:45:41.034Z,98855.81
2023-03-26T22:48:10.787Z,98864.19
2023-03-26T22:50:38.339Z,98874.38
2023-03-26T22:53:06.316Z,98880.28
2023-03-26T22:55:34.112Z,98885.28
2023-03-26T22:58:01.728Z,98901.38
2023-03-26T23:00:29.310Z,98887.88
2023-03-26T23:03:00.032Z,98899.06
2023-03-26T23:05:29.498Z,98897.22
2023-03-26T23:07:57.112Z,98920.34
2023-03-26T23:10:24.925Z,98923.66
2023-03-26T23:12:52.907Z,98923.66
2023-03-26T23:15:20.549Z,98932.09
2023-03-26T23:17:54.121Z,98935.56
2023-03-26T23:20:22.625Z,98935.56
2023-03-26T23:22:52.325Z,98940.66
2023-03-26T23:25:20.085Z,98946.72
2023-03-26T23:27:48.317Z,98952.66
2023-03-26T23:30:16.661Z,98973.16
2023-03-26T23:32:44.258Z,98960.25
2023-03-26T23:35:12.083Z,98966.09
2023-03-26T23:37:42.139Z,98973.66
2023-03-26T23:40:13.761Z,98981.28
2023-03-26T23:42:41.662Z,98984.66
2023-03-26T23:45:09.851Z,98994.88
2023-03-26T23:47:42.744Z,98995.66
2023-03-26T23:50:11.665Z,99010.25
2023-03-26T23:52:39.386Z,99017.81
2023-03-26T23:55:07.990Z,99019.53
2023-03-26T23:57:37.707Z,99021.25
